Time;durP1;ratioP1;P1;durP2;ratioP2;P2;SDS_P1;SDS_P2;PMS_P1;PMS_P2;Temp;Humidity;BMP_temperature;BMP_pressure;BME280_temperature;BME280_humidity;BME280_pressure;Samples;Min_cycle;Max_cycle;Signal;HPM_P1;HPM_P2
2023/01/03 00:01:23;;;;;;;16.80;8.48;;;4.90;99.90;;;;;;5021487;28;20370;-81
2023/01/03 00:03:51;;;;;;;15.98;8.93;;;4.90;99.90;;;;;;5020289;28;20052;-81
2023/01/03 00:06:24;;;;;;;16.38;10.00;;;4.90;99.90;;;;;;5027280;28;20037;-81
2023/01/03 00:08:50;;;;;;;17.52;9.10;;;4.90;99.90;;;;;;5024557;28;20103;-81
2023/01/03 00:12:22;;;;;;;19.70;9.93;;;4.90;99.90;;;;;;5028060;28;20097;-81
2023/01/03 00:14:09;;;;;;;18.52;8.90;;;4.90;99.90;;;;;;5019958;28;20187;-81
2023/01/03 00:16:35;;;;;;;18.55;9.57;;;4.80;99.90;;;;;;5021654;28;20037;-81
2023/01/03 00:19:05;;;;;;;19.13;9.45;;;4.90;99.90;;;;;;5031270;28;20041;-80
2023/01/03 00:21:31;;;;;;;19.20;9.60;;;4.80;99.90;;;;;;5025460;28;20586;-80
2023/01/03 00:23:56;;;;;;;18.42;10.15;;;4.80;99.90;;;;;;5023855;28;21395;-80
2023/01/03 00:26:22;;;;;;;19.77;9.82;;;4.80;99.90;;;;;;5016908;28;20113;-80
2023/01/03 00:28:47;;;;;;;18.85;10.68;;;4.80;99.90;;;;;;5028961;28;20046;-81
2023/01/03 00:31:13;;;;;;;16.60;10.00;;;4.70;99.90;;;;;;5027816;28;20044;-81
2023/01/03 00:33:39;;;;;;;16.40;9.13;;;4.80;99.90;;;;;;5051070;28;20038;-81
2023/01/03 00:36:07;;;;;;;16.20;9.75;;;4.70;99.90;;;;;;5014915;28;20050;-80
2023/01/03 00:38:34;;;;;;;17.42;9.32;;;4.70;99.90;;;;;;5034964;28;20405;-81
2023/01/03 00:41:04;;;;;;;21.65;10.38;;;4.70;99.90;;;;;;5035019;28;20390;-81
2023/01/03 00:43:30;;;;;;;20.83;9.77;;;4.60;99.90;;;;;;5025400;28;20390;-81
2023/01/03 00:45:56;;;;;;;17.92;9.82;;;4.60;99.90;;;;;;5038158;28;20083;-81
2023/01/03 00:48:22;;;;;;;20.00;9.10;;;4.60;99.90;;;;;;5023350;28;20093;-82
2023/01/03 00:50:47;;;;;;;20.50;9.82;;;4.60;99.90;;;;;;5030593;28;20052;-81
2023/01/03 00:53:13;;;;;;;23.30;10.20;;;4.50;99.90;;;;;;5038056;28;20037;-80
2023/01/03 00:55:39;;;;;;;19.88;9.07;;;4.50;99.90;;;;;;5016818;28;20049;-81
2023/01/03 00:58:04;;;;;;;20.13;9.85;;;4.50;99.90;;;;;;5017805;28;20068;-82
2023/01/03 01:00:30;;;;;;;16.92;9.95;;;4.50;99.90;;;;;;5037009;28;20052;-81
2023/01/03 01:02:55;;;;;;;20.92;9.98;;;4.50;99.90;;;;;;5027579;28;20041;-81
2023/01/03 01:05:21;;;;;;;19.98;10.45;;;4.50;99.90;;;;;;5025460;28;20505;-82
2023/01/03 01:07:47;;;;;;;19.83;10.48;;;4.40;99.90;;;;;;5022129;28;20045;-82
2023/01/03 01:10:12;;;;;;;19.10;10.43;;;4.40;99.90;;;;;;5025730;28;20443;-81
2023/01/03 01:12:38;;;;;;;18.00;9.95;;;4.40;99.90;;;;;;5021928;28;20045;-81
2023/01/03 01:15:05;;;;;;;19.95;10.48;;;4.40;99.90;;;;;;5026322;28;20052;-81
2023/01/03 01:17:30;;;;;;;20.50;10.13;;;4.40;99.90;;;;;;5030742;28;20051;-81
2023/01/03 01:19:56;;;;;;;20.55;10.27;;;4.40;99.90;;;;;;5028188;28;20030;-80
2023/01/03 01:22:21;;;;;;;20.08;10.38;;;4.40;99.90;;;;;;5025763;28;20047;-80
2023/01/03 01:24:48;;;;;;;19.77;10.52;;;4.40;99.90;;;;;;5043358;28;20068;-80
2023/01/03 01:27:13;;;;;;;20.73;10.73;;;4.40;99.90;;;;;;5018176;28;20466;-79
2023/01/03 01:29:39;;;;;;;18.25;10.77;;;4.40;99.90;;;;;;5017552;28;20136;-79
2023/01/03 01:32:05;;;;;;;23.50;11.13;;;4.30;99.90;;;;;;5020217;28;20045;-80
2023/01/03 01:34:31;;;;;;;22.27;11.13;;;4.30;99.90;;;;;;5022684;28;20037;-80
2023/01/03 01:36:57;;;;;;;17.65;10.45;;;4.30;99.90;;;;;;5032369;28;20180;-80
2023/01/03 01:39:24;;;;;;;21.63;10.57;;;4.30;99.90;;;;;;5046281;28;20174;-80
2023/01/03 01:44:51;;;;;;;21.52;11.00;;;4.30;99.90;;;;;;5013645;28;20044;-80
2023/01/03 01:47:17;;;;;;;19.85;10.43;;;4.30;99.90;;;;;;5019968;28;20460;-80
2023/01/03 01:49:45;;;;;;;19.42;10.57;;;4.30;99.90;;;;;;5024160;28;20051;-80
2023/01/03 01:52:13;;;;;;;20.83;10.73;;;4.30;99.90;;;;;;5003450;28;20073;-80
2023/01/03 01:54:40;;;;;;;16.10;9.68;;;4.30;99.90;;;;;;5035823;28;20026;-80
2023/01/03 01:57:08;;;;;;;19.17;10.80;;;4.30;99.90;;;;;;4995244;28;20131;-80
2023/01/03 01:59:33;;;;;;;21.65;11.73;;;4.30;99.90;;;;;;5013896;28;20046;-80
2023/01/03 02:02:00;;;;;;;21.17;11.15;;;4.30;99.90;;;;;;5020711;28;20111;-80
2023/01/03 02:04:29;;;;;;;23.98;11.20;;;4.60;99.90;;;;;;5023723;28;20042;-80
2023/01/03 02:06:56;;;;;;;22.52;11.15;;;4.20;99.90;;;;;;5042431;28;20033;-81
2023/01/03 02:09:22;;;;;;;23.38;11.77;;;4.20;99.90;;;;;;5032889;28;20086;-80
2023/01/03 02:13:04;;;;;;;25.67;11.32;;;4.20;99.90;;;;;;5017792;28;20041;-81
2023/01/03 02:14:51;;;;;;;21.10;11.88;;;4.20;99.90;;;;;;5023451;28;20049;-81
2023/01/03 02:17:44;;;;;;;22.55;11.95;;;4.20;99.90;;;;;;5012074;28;20037;-81
2023/01/03 02:20:15;;;;;;;23.17;11.88;;;4.20;99.90;;;;;;5026276;28;20120;-81
2023/01/03 02:23:25;;;;;;;22.20;12.73;;;4.20;99.90;;;;;;5022501;28;20049;-80
2023/01/03 02:26:21;;;;;;;26.63;12.70;;;4.20;99.90;;;;;;5028170;28;20049;-81
2023/01/03 02:28:59;;;;;;;29.77;12.80;;;4.20;99.90;;;;;;5018295;28;20037;-80
2023/01/03 02:31:40;;;;;;;29.90;13.10;;;4.20;99.90;;;;;;5020259;28;20040;-80
2023/01/03 02:34:24;;;;;;;23.35;12.70;;;4.10;99.90;;;;;;5031756;28;20401;-81
2023/01/03 02:37:06;;;;;;;26.52;13.68;;;4.10;99.90;;;;;;5015142;28;20124;-80
2023/01/03 02:39:53;;;;;;;25.03;13.40;;;4.10;99.90;;;;;;5044883;28;20048;-80
2023/01/03 02:43:01;;;;;;;25.48;14.23;;;4.00;99.90;;;;;;5018657;28;20284;-80
2023/01/03 02:45:51;;;;;;;26.45;14.15;;;4.00;99.90;;;;;;5029253;28;20104;-80
2023/01/03 02:48:41;;;;;;;25.30;13.95;;;4.10;99.90;;;;;;5028796;28;20099;-80
2023/01/03 02:51:20;;;;;;;30.45;15.38;;;4.00;99.90;;;;;;5033588;28;20442;-80
2023/01/03 02:53:49;;;;;;;27.77;15.15;;;4.00;99.90;;;;;;5008361;28;20045;-80
2023/01/03 02:56:22;;;;;;;29.05;15.57;;;4.00;99.90;;;;;;5033791;28;20037;-80
2023/01/03 02:58:54;;;;;;;26.45;15.02;;;4.00;99.90;;;;;;5018368;28;20493;-80
2023/01/03 03:01:19;;;;;;;29.05;15.20;;;4.00;99.90;;;;;;5019344;28;20045;-80
2023/01/03 03:03:46;;;;;;;28.85;15.57;;;4.00;99.90;;;;;;5027019;28;20048;-80
2023/01/03 03:06:26;;;;;;;30.00;14.75;;;4.00;99.90;;;;;;5032202;28;20041;-80
2023/01/03 03:08:52;;;;;;;30.63;16.05;;;4.00;99.90;;;;;;5015721;28;20044;-80
2023/01/03 03:14:16;;;;;;;28.52;15.85;;;4.00;99.90;;;;;;5022446;28;20052;-80
2023/01/03 03:16:47;;;;;;;37.30;15.32;;;4.00;99.90;;;;;;5023664;28;20485;-80
2023/01/03 03:25:23;;;;;;;32.10;16.80;;;3.90;99.90;;;;;;5034019;28;20524;-81
2023/01/03 03:30:41;;;;;;;36.53;17.60;;;3.90;99.90;;;;;;5019489;28;20095;-80
2023/01/03 03:33:10;;;;;;;29.95;16.52;;;4.00;99.90;;;;;;5044132;28;20048;-80
2023/01/03 03:36:07;;;;;;;31.23;16.77;;;3.90;99.90;;;;;;5008713;28;20501;-80
2023/01/03 03:38:37;;;;;;;32.88;16.50;;;3.90;99.90;;;;;;5002715;28;20049;-79
2023/01/03 03:47:41;;;;;;;26.92;15.73;;;3.80;99.90;;;;;;5026016;28;20072;-79
2023/01/03 03:50:10;;;;;;;30.42;16.60;;;3.80;99.90;;;;;;5022955;28;20451;-79
2023/01/03 03:52:41;;;;;;;28.50;16.05;;;3.90;99.90;;;;;;5031001;28;20112;-79
2023/01/03 03:55:23;;;;;;;28.10;16.17;;;3.90;99.90;;;;;;5024823;28;20084;-79
2023/01/03 03:58:00;;;;;;;29.90;16.52;;;3.80;99.90;;;;;;5013313;28;20060;-79
2023/01/03 04:00:31;;;;;;;27.10;15.60;;;3.80;99.90;;;;;;5004405;28;20045;-79
2023/01/03 04:03:00;;;;;;;30.15;16.50;;;3.80;99.90;;;;;;5007884;28;20041;-79
2023/01/03 04:05:30;;;;;;;27.35;15.57;;;3.80;99.90;;;;;;5023043;28;20397;-80
2023/01/03 04:07:56;;;;;;;27.45;15.65;;;3.80;99.90;;;;;;5018766;28;20132;-80
2023/01/03 04:10:22;;;;;;;31.20;16.65;;;3.80;99.90;;;;;;5018817;28;20132;-80
2023/01/03 04:12:49;;;;;;;31.13;17.13;;;3.80;99.90;;;;;;5009950;28;20045;-80
2023/01/03 04:15:16;;;;;;;30.95;16.50;;;3.80;99.90;;;;;;4993151;28;20041;-80
2023/01/03 04:17:42;;;;;;;29.38;17.33;;;3.70;99.90;;;;;;5009477;28;20087;-80
2023/01/03 04:20:09;;;;;;;29.02;17.30;;;3.70;99.90;;;;;;5012875;28;20033;-79
2023/01/03 04:22:34;;;;;;;32.05;17.42;;;3.70;99.90;;;;;;5013814;28;20041;-81
2023/01/03 04:25:00;;;;;;;32.10;17.85;;;3.70;99.90;;;;;;5015489;28;20060;-80
2023/01/03 04:27:25;;;;;;;32.53;18.58;;;3.70;99.90;;;;;;5037995;28;20038;-80
2023/01/03 04:29:51;;;;;;;30.45;17.85;;;3.70;99.90;;;;;;5018481;28;20697;-80
2023/01/03 04:32:17;;;;;;;29.55;17.23;;;3.70;99.90;;;;;;5006940;28;20029;-80
2023/01/03 04:34:42;;;;;;;30.90;17.77;;;3.70;99.90;;;;;;5010571;28;20086;-80
2023/01/03 04:37:08;;;;;;;35.72;17.40;;;3.70;99.90;;;;;;5014383;28;20440;-79
2023/01/03 04:39:33;;;;;;;33.33;18.63;;;3.70;99.90;;;;;;5005304;28;20069;-80
2023/01/03 04:42:00;;;;;;;34.30;17.98;;;3.70;99.90;;;;;;5012699;28;20041;-80
2023/01/03 04:44:26;;;;;;;34.25;18.50;;;3.70;99.90;;;;;;5014254;28;20047;-80
2023/01/03 04:46:52;;;;;;;35.90;19.15;;;3.70;99.90;;;;;;5015164;28;20065;-80
2023/01/03 04:49:18;;;;;;;31.00;18.73;;;3.70;99.90;;;;;;5020483;28;20084;-80
2023/01/03 04:51:43;;;;;;;32.60;19.15;;;3.70;99.90;;;;;;5013350;28;20037;-80
2023/01/03 04:54:09;;;;;;;32.90;18.90;;;3.90;99.90;;;;;;5012352;28;20056;-80
2023/01/03 04:56:36;;;;;;;34.13;18.20;;;3.70;99.90;;;;;;5012363;28;20048;-79
2023/01/03 04:59:02;;;;;;;29.83;18.55;;;3.60;99.90;;;;;;5009407;28;20053;-80
2023/01/03 05:01:28;;;;;;;30.50;18.23;;;3.60;99.90;;;;;;5022208;28;20032;-79
2023/01/03 05:03:59;;;;;;;33.38;18.80;;;3.60;99.90;;;;;;5018340;28;20029;-80
2023/01/03 05:06:25;;;;;;;30.98;18.45;;;3.60;99.90;;;;;;5010182;28;20507;-79
2023/01/03 05:08:50;;;;;;;28.67;18.27;;;3.60;99.90;;;;;;5030558;28;20392;-80
2023/01/03 05:11:16;;;;;;;32.45;19.02;;;3.60;99.90;;;;;;5036368;28;20033;-80
2023/01/03 05:13:42;;;;;;;33.10;18.70;;;3.60;99.90;;;;;;5024872;28;20033;-80
2023/01/03 05:16:11;;;;;;;27.55;17.90;;;3.60;99.90;;;;;;5016097;28;20037;-80
2023/01/03 05:18:37;;;;;;;30.70;17.48;;;3.60;99.90;;;;;;5016772;28;20049;-80
2023/01/03 05:26:51;;;;;;;26.65;17.55;;;3.60;99.90;;;;;;4929542;29;20039;-80
2023/01/03 05:29:20;;;;;;;34.60;18.80;;;3.60;99.90;;;;;;5007377;28;20064;-80
2023/01/03 05:31:46;;;;;;;30.80;18.08;;;3.60;99.90;;;;;;5025894;28;20044;-79
2023/01/03 05:34:11;;;;;;;32.00;18.42;;;3.60;99.90;;;;;;5019987;28;20051;-79
2023/01/03 05:36:37;;;;;;;29.95;17.38;;;3.60;99.90;;;;;;5015634;28;20041;-79
2023/01/03 05:39:03;;;;;;;29.63;18.90;;;3.60;99.90;;;;;;5028416;28;20041;-80
2023/01/03 05:44:13;;;;;;;33.45;18.55;;;3.60;99.90;;;;;;5028961;28;20079;-80
2023/01/03 05:46:39;;;;;;;30.20;19.15;;;3.50;99.90;;;;;;5031943;28;20032;-80
2023/01/03 05:49:04;;;;;;;32.97;20.05;;;3.60;99.90;;;;;;5024053;28;20416;-80
2023/01/03 05:51:30;;;;;;;35.40;18.73;;;3.60;99.90;;;;;;5032078;28;20128;-80
2023/01/03 05:53:55;;;;;;;29.30;18.05;;;3.60;99.90;;;;;;5035122;28;20038;-80
2023/01/03 05:56:21;;;;;;;29.77;19.15;;;3.50;99.90;;;;;;5042738;28;20139;-80
2023/01/03 05:58:47;;;;;;;31.85;18.60;;;3.50;99.90;;;;;;5023906;28;20088;-81
2023/01/03 06:01:14;;;;;;;31.67;19.17;;;3.50;99.90;;;;;;5021205;28;20033;-80
2023/01/03 06:03:44;;;;;;;31.33;19.02;;;3.50;99.90;;;;;;5047236;28;20048;-80
2023/01/03 06:06:11;;;;;;;30.60;17.95;;;3.50;99.90;;;;;;5020574;28;20065;-80
2023/01/03 06:08:37;;;;;;;33.55;19.75;;;3.50;99.90;;;;;;5017372;28;20042;-80
2023/01/03 06:11:07;;;;;;;33.58;19.33;;;3.50;99.90;;;;;;5024012;28;20041;-80
2023/01/03 06:13:33;;;;;;;31.05;18.88;;;3.50;99.90;;;;;;5022868;28;20041;-80
2023/01/03 06:18:48;;;;;;;34.72;20.40;;;3.40;99.90;;;;;;5017902;28;20068;-80
2023/01/03 06:21:14;;;;;;;34.08;18.92;;;3.40;99.90;;;;;;5016902;28;20097;-80
2023/01/03 06:23:39;;;;;;;31.08;19.33;;;3.40;99.90;;;;;;5027967;28;20088;-81
2023/01/03 06:26:05;;;;;;;34.38;19.48;;;3.40;99.90;;;;;;5021414;28;20036;-81
2023/01/03 06:28:30;;;;;;;31.42;19.08;;;3.40;99.90;;;;;;5049829;28;20503;-80
2023/01/03 06:30:56;;;;;;;36.25;19.35;;;3.40;99.90;;;;;;5041583;28;20037;-80
2023/01/03 06:33:22;;;;;;;34.70;18.95;;;3.40;99.90;;;;;;5037412;28;20456;-80
2023/01/03 06:35:47;;;;;;;29.58;18.20;;;3.30;99.90;;;;;;5018981;28;20060;-80
2023/01/03 06:38:13;;;;;;;65.72;18.83;;;3.30;99.90;;;;;;5024202;28;20173;-80
2023/01/03 06:40:38;;;;;;;29.40;17.70;;;3.30;99.90;;;;;;5011674;28;20044;-80
2023/01/03 06:43:04;;;;;;;39.22;17.58;;;3.20;99.90;;;;;;5028388;28;20519;-80
2023/01/03 06:53:42;;;;;;;39.10;14.80;;;3.10;99.90;;;;;;5035005;28;20405;-80
2023/01/03 06:56:08;;;;;;;33.35;13.25;;;3.20;99.90;;;;;;5023134;28;20045;-80
2023/01/03 06:58:34;;;;;;;24.35;13.43;;;3.00;99.90;;;;;;5024939;28;20125;-80
2023/01/03 07:01:02;;;;;;;36.05;13.90;;;2.90;99.90;;;;;;5016982;28;20076;-80
2023/01/03 07:03:29;;;;;;;42.10;13.88;;;2.90;99.90;;;;;;5025865;28;20029;-80
2023/01/03 07:05:55;;;;;;;22.67;13.13;;;2.80;99.90;;;;;;5030462;28;20455;-80
2023/01/03 07:08:20;;;;;;;47.15;14.23;;;2.80;99.90;;;;;;5042123;28;20092;-80
2023/01/03 07:10:46;;;;;;;59.78;15.40;;;2.80;99.90;;;;;;5019629;28;20041;-81
2023/01/03 07:15:56;;;;;;;64.70;15.45;;;2.80;99.90;;;;;;5019285;28;20569;-80
2023/01/03 07:18:22;;;;;;;48.17;15.20;;;2.80;99.90;;;;;;5024780;28;20064;-80
2023/01/03 07:20:47;;;;;;;28.88;15.45;;;2.80;99.90;;;;;;5020260;28;20071;-80
2023/01/03 07:23:13;;;;;;;48.67;16.52;;;2.80;99.90;;;;;;5038543;28;20029;-80
2023/01/03 07:25:40;;;;;;;57.65;17.95;;;2.90;99.90;;;;;;5029148;28;20041;-80
2023/01/03 07:28:11;;;;;;;37.35;17.02;;;2.90;99.90;;;;;;5020303;28;20116;-80
2023/01/03 07:30:38;;;;;;;39.30;17.35;;;3.00;99.90;;;;;;5034160;28;20042;-80
2023/01/03 07:33:04;;;;;;;35.30;17.92;;;3.00;99.90;;;;;;5025261;28;20090;-80
2023/01/03 07:35:34;;;;;;;39.35;18.98;;;3.10;99.90;;;;;;5016840;28;20095;-80
2023/01/03 07:38:00;;;;;;;67.20;19.30;;;3.20;99.90;;;;;;5025055;28;20143;-80
2023/01/03 07:40:26;;;;;;;55.67;20.35;;;3.20;99.90;;;;;;5012893;28;20049;-80
2023/01/03 07:45:39;;;;;;;59.53;22.92;;;3.30;99.90;;;;;;5005538;28;20037;-80
2023/01/03 07:48:05;;;;;;;65.20;22.55;;;3.40;99.90;;;;;;5047580;28;20037;-80
2023/01/03 07:50:31;;;;;;;52.85;23.92;;;3.50;99.90;;;;;;5020440;28;20430;-80
2023/01/03 07:52:56;;;;;;;55.70;23.63;;;3.50;99.90;;;;;;5038180;28;20477;-80
2023/01/03 07:55:22;;;;;;;57.05;23.92;;;3.60;99.90;;;;;;5005387;28;20058;-82
2023/01/03 07:57:47;;;;;;;58.80;24.88;;;3.60;99.90;;;;;;5013498;28;20050;-80
2023/01/03 08:00:13;;;;;;;60.78;26.55;;;3.70;99.90;;;;;;5035557;28;20485;-79
2023/01/03 08:02:39;;;;;;;60.75;26.25;;;3.80;99.90;;;;;;5019151;28;20037;-80
2023/01/03 08:05:05;;;;;;;62.38;27.10;;;3.80;99.90;;;;;;5004337;28;20036;-80
2023/01/03 08:07:30;;;;;;;58.28;26.17;;;3.90;99.90;;;;;;5023385;28;20428;-80
2023/01/03 08:15:24;;;;;;;69.95;28.23;;;4.10;99.90;;;;;;5011073;28;20052;-79
2023/01/03 08:17:50;;;;;;;66.65;27.73;;;4.10;99.90;;;;;;5029953;28;20037;-79
2023/01/03 08:20:15;;;;;;;62.67;27.55;;;4.20;99.90;;;;;;5035614;28;20551;-79
2023/01/03 08:22:41;;;;;;;67.05;28.63;;;4.20;99.90;;;;;;5013460;28;20041;-79
2023/01/03 08:25:07;;;;;;;65.70;28.73;;;4.40;99.90;;;;;;5020197;28;20037;-79
2023/01/03 08:27:33;;;;;;;63.45;30.05;;;4.30;99.90;;;;;;5023289;28;20398;-79
2023/01/03 08:29:58;;;;;;;67.28;29.98;;;4.30;99.90;;;;;;5014654;28;20037;-80
2023/01/03 08:32:24;;;;;;;61.05;28.45;;;4.40;99.90;;;;;;5026835;28;20048;-80
2023/01/03 08:34:50;;;;;;;62.13;27.60;;;4.40;99.90;;;;;;4998235;28;20080;-79
2023/01/03 08:37:16;;;;;;;60.38;28.35;;;4.50;99.90;;;;;;5015280;28;20040;-79
2023/01/03 08:39:51;;;;;;;60.55;28.63;;;4.50;99.90;;;;;;5014088;28;20045;-79
2023/01/03 08:42:22;;;;;;;66.97;29.52;;;4.50;99.90;;;;;;5022765;28;20043;-80
2023/01/03 08:44:49;;;;;;;68.82;30.55;;;4.60;99.90;;;;;;5015206;28;20502;-79
2023/01/03 08:47:16;;;;;;;63.50;30.42;;;4.60;99.90;;;;;;5019240;28;20530;-79
2023/01/03 08:49:42;;;;;;;70.68;31.42;;;4.60;99.90;;;;;;5014873;28;20092;-80
2023/01/03 08:52:07;;;;;;;64.60;30.90;;;5.00;99.90;;;;;;5024398;28;20049;-79
2023/01/03 08:54:33;;;;;;;67.10;29.77;;;4.70;99.90;;;;;;5044795;28;20036;-79
2023/01/03 08:56:58;;;;;;;65.50;30.58;;;4.80;99.90;;;;;;5039844;28;20385;-80
2023/01/03 08:59:24;;;;;;;76.95;32.35;;;4.70;99.90;;;;;;5015940;28;20505;-80
2023/01/03 09:01:50;;;;;;;73.22;32.20;;;5.10;99.90;;;;;;5011724;28;20029;-81
2023/01/03 09:04:15;;;;;;;70.28;31.13;;;4.80;99.90;;;;;;5035313;28;20084;-81
2023/01/03 09:06:41;;;;;;;71.60;31.63;;;4.80;99.90;;;;;;5012623;28;20034;-81
2023/01/03 09:09:07;;;;;;;76.30;32.55;;;4.80;99.90;;;;;;5017036;28;20045;-81
2023/01/03 09:11:33;;;;;;;73.88;33.10;;;4.90;99.90;;;;;;5019690;28;20124;-80
2023/01/03 09:13:59;;;;;;;69.72;31.77;;;4.90;99.90;;;;;;5044375;28;20033;-81
2023/01/03 09:16:25;;;;;;;66.65;31.75;;;4.90;99.90;;;;;;5016305;28;20048;-80
2023/01/03 09:18:51;;;;;;;76.53;32.90;;;4.90;99.90;;;;;;5033252;28;20385;-80
2023/01/03 09:21:17;;;;;;;75.78;31.70;;;4.90;99.90;;;;;;5036633;28;20037;-82
2023/01/03 09:23:42;;;;;;;69.90;32.83;;;4.90;99.90;;;;;;5038866;28;20048;-81
2023/01/03 09:26:08;;;;;;;77.97;34.45;;;4.90;99.90;;;;;;5020906;28;20041;-81
2023/01/03 09:28:33;;;;;;;68.63;33.63;;;5.00;99.90;;;;;;5025873;28;20397;-81
2023/01/03 09:30:59;;;;;;;74.93;33.10;;;5.00;99.90;;;;;;5032249;28;20041;-81
2023/01/03 09:33:25;;;;;;;76.68;33.47;;;5.00;99.90;;;;;;5031770;28;20041;-82
2023/01/03 09:35:52;;;;;;;72.07;32.38;;;5.00;99.90;;;;;;5022553;28;20514;-81
2023/01/03 09:38:18;;;;;;;71.97;32.65;;;5.00;99.90;;;;;;5032148;28;20541;-81
2023/01/03 09:40:45;;;;;;;73.00;33.90;;;5.00;99.90;;;;;;5022578;28;20033;-79
2023/01/03 09:43:21;;;;;;;67.35;30.25;;;5.10;99.90;;;;;;5039299;28;20042;-80
2023/01/03 09:45:53;;;;;;;66.07;31.80;;;5.10;99.90;;;;;;5025743;28;20040;-80
2023/01/03 09:48:28;;;;;;;69.80;33.85;;;5.20;99.90;;;;;;5038880;28;20045;-80
2023/01/03 09:50:54;;;;;;;68.38;32.13;;;5.20;99.90;;;;;;5043570;28;20119;-80
2023/01/03 10:05:10;;;;;;;67.55;31.20;;;5.40;99.90;;;;;;5037086;28;20113;-80
2023/01/03 10:08:01;;;;;;;63.03;30.00;;;5.50;99.90;;;;;;5020737;28;20071;-80
2023/01/03 10:10:41;;;;;;;70.38;30.50;;;5.50;99.90;;;;;;5012550;28;20120;-80
2023/01/03 10:13:18;;;;;;;62.80;30.98;;;5.50;99.90;;;;;;5022208;28;20044;-80
2023/01/03 10:15:59;;;;;;;69.63;29.60;;;5.60;99.90;;;;;;5023742;28;20041;-80
2023/01/03 10:18:31;;;;;;;59.65;29.27;;;5.60;99.90;;;;;;5012538;28;20041;-80
2023/01/03 10:21:03;;;;;;;61.30;29.30;;;5.70;99.90;;;;;;5028369;28;20033;-80
2023/01/03 10:23:29;;;;;;;58.72;28.63;;;5.70;99.90;;;;;;5016125;28;20043;-80
2023/01/03 10:25:55;;;;;;;59.33;27.92;;;5.80;99.90;;;;;;5030015;28;20037;-80
2023/01/03 10:28:36;;;;;;;55.33;28.23;;;5.80;99.90;;;;;;5039141;28;20041;-81
2023/01/03 10:31:21;;;;;;;54.85;26.98;;;5.90;99.90;;;;;;5022297;28;20115;-80
2023/01/03 10:33:48;;;;;;;51.53;25.63;;;5.90;99.90;;;;;;5025981;28;20111;-81
2023/01/03 10:36:16;;;;;;;45.25;23.83;;;6.00;99.90;;;;;;5029555;28;20489;-80
2023/01/03 10:38:43;;;;;;;40.78;21.95;;;6.00;99.90;;;;;;5019881;28;20034;-81
2023/01/03 10:41:35;;;;;;;42.58;22.48;;;6.00;99.90;;;;;;5037197;28;20066;-81
2023/01/03 10:44:02;;;;;;;39.67;21.27;;;6.10;99.90;;;;;;5019840;28;20586;-81
2023/01/03 10:46:29;;;;;;;38.97;20.40;;;6.10;99.90;;;;;;5010025;28;20120;-81
2023/01/03 10:49:10;;;;;;;44.00;22.02;;;6.10;99.90;;;;;;5008473;28;20096;-81
2023/01/03 10:51:51;;;;;;;44.30;21.40;;;6.10;99.90;;;;;;5009869;28;20038;-81
2023/01/03 10:54:16;;;;;;;36.15;20.77;;;6.10;99.90;;;;;;5014411;28;20045;-80
2023/01/03 10:56:44;;;;;;;39.15;19.90;;;6.10;99.90;;;;;;5029630;28;20049;-81
2023/01/03 10:59:11;;;;;;;36.03;18.40;;;6.10;99.90;;;;;;5019406;28;20052;-81
2023/01/03 11:01:54;;;;;;;36.25;18.33;;;6.10;99.90;;;;;;5026469;28;20155;-81
2023/01/03 11:04:19;;;;;;;36.03;19.40;;;6.20;99.90;;;;;;5002322;28;20037;-81
2023/01/03 11:07:05;;;;;;;36.80;19.10;;;6.10;99.90;;;;;;5041818;28;20478;-81
2023/01/03 11:09:43;;;;;;;32.72;18.10;;;6.10;99.90;;;;;;5019260;28;20045;-81
2023/01/03 11:12:16;;;;;;;34.30;18.05;;;6.20;99.90;;;;;;5026099;28;20500;-82
2023/01/03 11:14:50;;;;;;;33.95;18.23;;;6.10;99.90;;;;;;5029250;28;20029;-81
2023/01/03 11:17:19;;;;;;;33.33;18.42;;;6.20;99.90;;;;;;5009433;28;20044;-81
2023/01/03 11:19:45;;;;;;;33.20;18.42;;;6.10;99.90;;;;;;5029513;28;20065;-82
2023/01/03 11:22:30;;;;;;;38.67;20.13;;;6.10;99.90;;;;;;5038188;28;20048;-81
2023/01/03 11:25:04;;;;;;;36.55;19.70;;;6.10;99.90;;;;;;5027193;22;20503;-63
2023/01/03 11:27:36;;;;;;;36.63;19.58;;;6.20;99.90;;;;;;5006485;28;20279;-64
2023/01/03 11:30:08;;;;;;;35.00;20.13;;;6.20;99.90;;;;;;5009123;28;20042;-64
2023/01/03 11:32:57;;;;;;;33.15;19.42;;;6.20;99.90;;;;;;5004603;28;20042;-64
2023/01/03 11:35:33;;;;;;;33.65;17.38;;;6.20;99.90;;;;;;4980405;28;20136;-63
2023/01/03 11:38:25;;;;;;;32.30;17.30;;;6.20;99.90;;;;;;5006595;28;20077;-64
2023/01/03 11:41:16;;;;;;;31.08;17.95;;;6.20;99.90;;;;;;5014449;28;20046;-64
2023/01/03 11:43:59;;;;;;;32.80;17.73;;;6.20;99.90;;;;;;5018457;28;20097;-64
2023/01/03 11:46:39;;;;;;;33.28;17.80;;;6.20;99.90;;;;;;5023706;28;20041;-64
2023/01/03 11:49:15;;;;;;;38.53;17.67;;;6.20;99.90;;;;;;5019547;28;20066;-63
2023/01/03 11:52:05;;;;;;;36.58;16.27;;;6.30;99.90;;;;;;5026555;28;20052;-64
2023/01/03 11:54:45;;;;;;;33.85;16.67;;;6.30;99.90;;;;;;5023931;28;20071;-64
2023/01/03 11:57:30;;;;;;;29.40;15.90;;;6.30;99.90;;;;;;5016757;28;20538;-64
2023/01/03 12:00:20;;;;;;;35.05;17.30;;;6.40;99.90;;;;;;5025230;28;20049;-66
2023/01/03 12:03:09;;;;;;;38.28;16.75;;;6.40;99.90;;;;;;5020649;28;20100;-64
2023/01/03 12:05:58;;;;;;;32.67;16.88;;;6.40;99.90;;;;;;5011994;28;20481;-64
2023/01/03 12:08:32;;;;;;;39.47;18.83;;;6.50;99.90;;;;;;5037572;28;20396;-64
2023/01/03 12:11:20;;;;;;;40.35;18.33;;;6.40;99.90;;;;;;5004427;28;20400;-64
2023/01/03 12:14:14;;;;;;;39.30;17.73;;;6.50;99.90;;;;;;5024117;28;20041;-63
2023/01/03 12:16:48;;;;;;;38.38;17.83;;;6.50;99.90;;;;;;5025958;28;20038;-64
2023/01/03 12:19:25;;;;;;;38.70;17.80;;;6.50;99.90;;;;;;5015361;28;20048;-64
2023/01/03 12:21:57;;;;;;;41.35;19.23;;;6.50;99.90;;;;;;5017924;28;20107;-64
2023/01/03 12:24:59;;;;;;;36.80;18.48;;;6.50;99.90;;;;;;5012217;28;20092;-64
2023/01/03 12:27:37;;;;;;;43.15;19.52;;;6.50;99.90;;;;;;5002595;28;20081;-63
2023/01/03 12:30:18;;;;;;;38.58;19.10;;;6.50;99.90;;;;;;5040698;28;20053;-64
2023/01/03 12:32:52;;;;;;;38.88;18.25;;;6.50;99.90;;;;;;5045637;28;20033;-64
2023/01/03 12:35:37;;;;;;;40.53;18.98;;;6.60;99.90;;;;;;5046177;28;20076;-63
2023/01/03 12:38:05;;;;;;;42.50;19.88;;;6.50;99.90;;;;;;5021624;28;20094;-63
2023/01/03 12:40:42;;;;;;;41.15;18.65;;;6.60;99.90;;;;;;5046940;28;20412;-63
2023/01/03 12:43:24;;;;;;;42.22;19.33;;;6.60;99.90;;;;;;5036405;28;20029;-64
2023/01/03 12:46:10;;;;;;;44.35;18.48;;;6.50;99.90;;;;;;5044054;28;20117;-64
2023/01/03 12:48:53;;;;;;;40.58;18.38;;;6.60;99.90;;;;;;5023720;28;20049;-64
2023/01/03 12:51:23;;;;;;;42.35;18.48;;;6.60;99.90;;;;;;5042790;28;20040;-64
2023/01/03 12:54:12;;;;;;;36.33;18.55;;;6.60;99.90;;;;;;5051151;28;20073;-64
2023/01/03 12:56:46;;;;;;;37.10;18.92;;;6.60;99.90;;;;;;5038563;28;20510;-64
2023/01/03 12:59:35;;;;;;;44.80;18.58;;;6.60;99.90;;;;;;5031646;28;20049;-64
2023/01/03 13:02:33;;;;;;;38.13;18.25;;;6.60;99.90;;;;;;5036855;28;20040;-64
2023/01/03 13:05:15;;;;;;;38.90;18.08;;;6.70;99.90;;;;;;5007244;28;20080;-64
2023/01/03 13:07:50;;;;;;;33.75;16.88;;;6.70;99.90;;;;;;5040201;28;20423;-64
2023/01/03 13:10:19;;;;;;;38.20;17.15;;;6.80;99.90;;;;;;5042989;28;20064;-64
2023/01/03 13:12:51;;;;;;;38.30;16.27;;;6.80;99.90;;;;;;5034878;28;20461;-64
2023/01/03 13:15:29;;;;;;;34.78;16.25;;;6.80;99.90;;;;;;5024893;28;20051;-64
2023/01/03 13:18:14;;;;;;;30.98;16.15;;;6.90;99.90;;;;;;5026983;28;20113;-64
2023/01/03 13:20:40;;;;;;;31.27;16.65;;;7.00;99.90;;;;;;5051199;28;20370;-65
2023/01/03 13:23:27;;;;;;;34.78;16.00;;;7.10;99.90;;;;;;5052135;28;20039;-64
2023/01/03 13:26:17;;;;;;;32.80;15.63;;;7.10;99.90;;;;;;5048669;28;20124;-64
2023/01/03 13:28:42;;;;;;;30.20;14.52;;;7.10;99.90;;;;;;5022747;28;20041;-64
2023/01/03 13:31:17;;;;;;;33.03;16.05;;;7.10;99.90;;;;;;5026389;28;20099;-64
2023/01/03 13:34:09;;;;;;;29.85;14.57;;;7.10;99.90;;;;;;5016200;28;20041;-64
2023/01/03 13:37:05;;;;;;;30.98;13.38;;;7.10;99.90;;;;;;5046301;28;20045;-65
2023/01/03 13:39:51;;;;;;;27.67;13.40;;;7.10;99.90;;;;;;5044765;28;20048;-64
2023/01/03 13:42:22;;;;;;;26.27;13.18;;;7.10;99.90;;;;;;5032585;28;20045;-65
2023/01/03 13:44:49;;;;;;;26.23;12.65;;;7.20;99.90;;;;;;5025345;28;20181;-64
2023/01/03 13:47:38;;;;;;;25.63;12.35;;;7.20;99.90;;;;;;5045603;28;20033;-64
2023/01/03 13:50:04;;;;;;;25.63;12.60;;;7.20;99.90;;;;;;5024936;28;20052;-63
2023/01/03 13:53:02;;;;;;;24.45;12.95;;;7.20;99.90;;;;;;5033148;28;20041;-64
2023/01/03 13:55:32;;;;;;;27.25;12.05;;;7.20;99.90;;;;;;5043670;28;20038;-63
2023/01/03 13:57:58;;;;;;;22.95;12.75;;;7.20;99.90;;;;;;5049251;28;20124;-63
2023/01/03 14:00:24;;;;;;;25.25;12.57;;;7.20;99.90;;;;;;5022592;28;20463;-63
2023/01/03 14:03:34;;;;;;;21.17;11.60;;;7.20;99.90;;;;;;5022689;28;20036;-63